Date,TemperatureHighF,TemperatureAvgF,TemperatureLowF,DewpointHighF,DewpointAvgF,DewpointLowF,HumidityHigh,HumidityAvg,HumidityLow,PressureMaxIn,PressureMinIn,WindSpeedMaxMPH,WindSpeedAvgMPH,GustSpeedMaxMPH,PrecipitationSumIn
2013-1-7,28.2,25.6,23.9,-99.9,-99.9,-99.9,0,0,100,0.00,40.00,0,0,0,0.00
2013-1-8,44.6,26.7,20.9,-99.9,-99.9,-99.9,0,0,100,0.00,40.00,0,0,7,0.01
2013-1-9,51.1,42.1,34.5,-99.9,-99.9,-99.9,0,0,100,0.00,40.00,0,0,0,0.00
2013-1-10,47.6,39.6,32.3,-99.9,-99.9,-99.9,0,0,100,0.00,40.00,0,0,0,0.00
2013-1-11,61.2,53.7,47.2,-99.9,-99.9,-99.9,0,0,100,0.00,40.00,0,0,1,0.01
2013-1-12,68.2,58.3,47.8,-99.9,-99.9,-99.9,0,0,100,0.00,40.00,0,0,8,0.10
2013-1-13,63.6,39.8,26.6,-99.9,-99.9,-99.9,0,0,100,0.00,40.00,0,0,0,1.84
2013-1-14,29.1,24.2,20.2,-99.9,-99.9,-99.9,0,0,100,0.00,40.00,1,0,17,0.00
2013-1-15,32.6,26.5,19.2,-99.9,-99.9,-99.9,0,0,100,0.00,40.00,0,0,0,0.00
2013-1-16,37.5,32.1,29.6,-99.9,-99.9,-99.9,0,0,100,0.00,40.00,0,0,0,0.00
2013-1-17,43.7,34.0,27.3,-99.9,-99.9,-99.9,0,0,100,0.00,40.00,0,0,2,0.00
2013-1-18,39.7,30.9,18.9,-99.9,-99.9,-99.9,0,0,100,0.00,40.00,0,0,0,0.00
2013-1-19,53.2,44.8,37.6,-99.9,-99.9,-99.9,0,0,100,0.00,40.00,0,0,0,0.00
2013-1-20,44.6,34.5,26.3,-99.9,-99.9,-99.9,0,0,100,0.00,40.00,9,2,16,0.00
2013-1-21,26.5,20.7,12.8,-99.9,-99.9,-99.9,0,0,100,0.00,40.00,17,7,27,0.00
2013-1-22,21.5,13.6,6.7,-99.9,-99.9,-99.9,0,0,100,0.00,40.00,9,4,19,0.00
2013-1-23,35.4,23.6,11.2,-99.9,-99.9,-99.9,0,0,100,0.00,40.00,9,2,18,0.00
2013-1-24,28.6,22.7,15.7,-99.9,-99.9,-99.9,0,0,100,0.00,40.00,13,4,26,0.00
2013-1-25,31.4,24.7,20.8,-99.9,-99.9,-99.9,0,0,100,0.00,40.00,6,2,9,0.00
2013-1-26,34.9,26.9,20.7,-99.9,-99.9,-99.9,0,0,100,0.00,40.00,6,2,12,0.00
2013-1-27,40.9,31.3,21.6,-99.9,-99.9,-99.9,0,0,100,0.00,40.00,5,2,9,0.22
2013-1-28,55.3,50.8,40.8,-99.9,-99.9,-99.9,0,0,100,0.00,40.00,8,4,18,0.23
2013-1-29,64.1,58.4,50.9,-99.9,-99.9,-99.9,0,0,100,0.00,40.00,12,5,20,0.00
2013-1-30,65.8,48.1,29.0,-99.9,-99.9,-99.9,0,0,100,0.00,40.00,20,7,37,0.89
2013-1-31,34.4,26.8,13.1,-99.9,-99.9,-99.9,0,0,100,0.00,40.00,15,8,31,0.01
2013-2-1,19.9,12.9,5.7,-99.9,-99.9,-99.9,0,0,100,0.00,40.00,15,4,32,0.01
2013-2-2,35.3,26.9,15.8,-99.9,-99.9,-99.9,0,0,100,0.00,40.00,10,3,18,0.09
2013-2-3,30.4,23.3,17.8,-99.9,-99.9,-99.9,0,0,100,0.00,40.00,10,3,22,0.00
2013-2-4,38.9,29.1,16.7,-99.9,-99.9,-99.9,0,0,100,0.00,40.00,7,2,15,0.07
2013-2-5,42.2,34.8,25.9,-99.9,-99.9,-99.9,0,0,100,0.00,40.00,8,2,15,0.05
2013-2-6,41.1,34.2,29.8,-99.9,-99.9,-99.9,0,0,100,0.00,40.00,8,2,14,0.00
2013-2-7,32.1,31.6,31.0,-99.9,-99.9,-99.9,0,0,100,0.00,40.00,2,1,5,0.00
2013-2-13,44.0,36.9,31.6,-99.9,-99.9,-99.9,0,0,100,19.99,19.99,11,3,11,0.00
2013-2-14,53.5,42.2,32.1,-99.9,-99.9,-99.9,0,0,100,19.99,19.99,19,4,19,0.00
2013-2-15,43.1,34.1,24.9,-99.9,-99.9,-99.9,0,0,100,20.00,19.99,19,4,19,0.00
2013-2-16,31.8,25.5,20.8,-99.9,-99.9,-99.9,0,0,100,19.99,19.99,20,4,20,0.00
2013-2-17,36.6,26.0,16.5,-99.9,-99.9,-99.9,0,0,100,19.99,19.99,8,2,8,0.00
2013-2-18,59.9,43.2,26.1,-99.9,-99.9,-99.9,0,0,100,20.00,20.00,27,6,27,0.00
2013-2-19,45.4,31.3,24.6,-99.9,-99.9,-99.9,0,0,100,19.99,19.99,26,9,26,0.00
2013-2-20,31.9,23.7,16.5,-99.9,-99.9,-99.9,0,0,100,19.99,19.99,18,5,18,0.00
2013-2-21,35.6,26.3,17.6,-99.9,-99.9,-99.9,0,0,100,19.99,19.99,10,3,10,0.00
2013-2-22,41.0,35.2,31.0,-99.9,-99.9,-99.9,0,0,100,19.99,19.99,13,3,13,0.00
2013-2-23,41.1,32.8,25.2,-99.9,-99.9,-99.9,0,0,100,20.00,19.99,15,4,15,0.00
2013-2-24,44.8,33.0,21.3,-99.9,-99.9,-99.9,0,0,100,19.99,19.99,7,2,7,0.00
2013-2-25,47.0,36.6,27.4,-99.9,-99.9,-99.9,0,0,100,19.99,19.99,12,3,12,0.00
2013-2-26,45.1,40.4,35.7,-99.9,-99.9,-99.9,0,0,100,19.99,19.99,11,3,11,0.00
2013-2-27,39.5,35.3,32.7,-99.9,-99.9,-99.9,0,0,100,20.00,19.99,18,5,18,0.00
2013-2-28,39.7,34.8,31.8,-99.9,-99.9,-99.9,0,0,100,19.99,19.99,17,5,17,0.00
2013-3-1,42.1,34.0,31.6,-99.9,-99.9,-99.9,0,0,100,19.99,19.99,10,3,10,0.00
2013-3-2,35.1,30.6,28.2,-99.9,-99.9,-99.9,0,0,100,20.00,19.99,14,4,14,0.00
2013-3-3,53.9,30.4,21.5,-99.9,-99.9,-99.9,0,0,100,19.99,19.99,14,3,14,0.00
2013-3-4,46.3,32.6,18.9,-99.9,-99.9,-99.9,0,0,100,20.00,19.99,10,2,10,0.00
2013-3-5,40.2,37.5,28.7,-99.9,-99.9,-99.9,0,0,100,19.99,19.99,23,4,23,0.13
2013-3-6,34.5,31.1,29.2,-99.9,-99.9,-99.9,0,0,100,20.00,19.99,16,6,16,0.00
2013-3-7,41.4,33.7,29.3,-99.9,-99.9,-99.9,0,0,100,20.00,19.99,8,2,8,0.00
2013-3-8,46.0,36.6,26.0,-99.9,-99.9,-99.9,0,0,100,20.00,19.99,10,2,10,0.00
2013-3-9,60.1,45.3,30.5,-99.9,-99.9,-99.9,0,0,100,19.99,19.99,8,3,8,0.00
2013-3-10,69.5,57.9,49.0,-99.9,-99.9,-99.9,0,0,100,0.00,40.00,17,6,17,0.00
2013-3-11,56.5,47.7,35.7,-99.9,-99.9,-99.9,0,0,100,20.00,19.99,20,5,20,0.00
2013-3-12,48.6,39.3,34.2,-99.9,-99.9,-99.9,0,0,100,20.00,19.99,21,6,21,0.00
2013-3-13,36.9,31.3,25.0,-99.9,-99.9,-99.9,0,0,100,19.99,19.99,20,7,20,0.00
2013-3-14,47.4,32.5,19.9,-99.9,-99.9,-99.9,0,0,100,19.99,19.99,11,2,11,0.00
2013-3-15,59.9,44.0,27.7,-99.9,-99.9,-99.9,0,0,100,20.00,20.00,9,2,9,0.00
2013-3-16,66.3,53.4,39.5,-99.9,-99.9,-99.9,0,0,100,20.00,19.99,19,6,19,0.00
2013-3-17,39.4,35.9,33.8,-99.9,-99.9,-99.9,0,0,100,20.00,20.00,12,4,12,0.00
2013-3-18,48.9,39.6,34.2,-99.9,-99.9,-99.9,0,0,100,19.99,19.99,19,4,19,0.00
2013-3-19,44.8,36.5,26.5,-99.9,-99.9,-99.9,0,0,100,20.00,20.00,22,6,22,0.00
2013-3-20,40.8,30.8,24.9,-99.9,-99.9,-99.9,0,0,100,19.99,19.99,25,6,25,0.00
2013-3-21,34.9,26.3,18.7,-99.9,-99.9,-99.9,0,0,100,19.99,19.99,11,4,11,0.00
2013-3-22,47.8,34.4,17.0,-99.9,-99.9,-99.9,0,0,100,20.00,20.00,8,1,8,0.00
2013-3-23,54.1,43.4,36.1,-99.9,-99.9,-99.9,0,0,100,19.99,19.99,10,3,10,0.00
2013-3-24,42.5,36.1,31.8,-99.9,-99.9,-99.9,0,0,100,20.00,19.99,15,4,15,0.00
2013-3-25,36.2,32.2,29.5,-99.9,-99.9,-99.9,0,0,100,19.99,19.99,18,6,18,0.00
2013-3-26,43.9,35.5,30.8,-99.9,-99.9,-99.9,0,0,100,20.00,20.00,17,6,17,0.00
2013-3-27,49.5,37.5,25.3,-99.9,-99.9,-99.9,0,0,100,20.00,19.99,14,3,14,0.00
2013-3-28,52.1,39.7,24.0,-99.9,-99.9,-99.9,0,0,100,20.00,19.99,8,2,8,0.00
2013-3-29,63.5,45.1,29.2,-99.9,-99.9,-99.9,0,0,100,19.99,19.99,6,1,6,0.00
2013-3-30,63.8,48.3,29.3,-99.9,-99.9,-99.9,0,0,100,20.00,20.00,7,2,7,0.00
2013-3-31,60.9,51.5,46.6,-99.9,-99.9,-99.9,0,0,100,19.99,19.99,17,3,17,0.00
2013-4-1,52.8,44.3,36.7,-99.9,-99.9,-99.9,0,0,100,20.00,19.99,18,6,18,0.00
2013-4-2,51.1,39.0,26.4,-99.9,-99.9,-99.9,0,0,100,20.00,19.99,11,4,12,0.00
2013-4-3,54.8,39.6,25.5,-99.9,-99.9,-99.9,0,0,100,20.00,19.99,12,2,12,0.00
2013-4-4,61.4,46.5,35.5,-99.9,-99.9,-99.9,0,0,100,19.99,19.99,8,2,8,0.00
2013-4-5,64.4,49.7,31.0,-99.9,-99.9,-99.9,0,0,100,19.99,19.99,13,2,13,0.00
2013-4-6,75.8,57.4,39.4,-99.9,-99.9,-99.9,0,0,100,20.00,19.99,10,3,10,0.00
2013-4-7,79.9,65.9,55.7,-99.9,-99.9,-99.9,0,0,100,19.99,19.99,13,4,13,0.00
2013-4-8,76.5,62.8,52.8,-99.9,-99.9,-99.9,0,0,100,19.99,19.99,12,3,15,0.00
2013-4-9,86.8,68.9,55.6,-99.9,-99.9,-99.9,0,0,100,19.99,19.99,14,3,14,0.00
2013-4-10,90.6,74.1,63.7,-99.9,-99.9,-99.9,0,0,100,20.00,19.99,18,4,18,0.00
2013-4-11,73.8,61.8,49.9,-99.9,-99.9,-99.9,0,0,100,20.00,19.99,22,4,22,0.00
2013-4-12,67.8,45.6,35.9,-99.9,-99.9,-99.9,0,0,100,20.00,19.99,20,6,20,0.00
2013-4-13,74.6,49.5,34.4,-99.9,-99.9,-99.9,0,0,100,20.00,19.99,19,4,19,0.00
2013-4-14,80.9,58.9,39.0,-99.9,-99.9,-99.9,0,0,100,20.00,19.99,13,3,13,0.00
2013-4-15,74.8,64.3,57.0,-99.9,-99.9,-99.9,0,0,100,20.00,19.99,11,4,11,0.00
2013-4-16,91.6,66.3,56.0,-99.9,-99.9,-99.9,0,0,100,19.99,19.99,15,3,15,0.00
2013-4-17,80.7,65.0,54.7,-99.9,-99.9,-99.9,0,0,100,19.99,19.99,9,3,9,0.00
2013-4-18,87.4,71.8,63.4,-99.9,-99.9,-99.9,0,0,100,20.00,19.99,14,5,14,0.00
2013-4-19,63.5,42.9,37.6,-99.9,-99.9,-99.9,0,0,100,20.00,19.99,17,6,17,0.00
2013-4-20,55.3,43.4,30.9,-99.9,-99.9,-99.9,0,0,100,20.00,20.00,12,3,12,0.00
2013-4-21,64.1,47.3,33.9,-99.9,-99.9,-99.9,0,0,100,19.99,19.99,8,2,8,0.00
2013-4-22,76.1,55.6,35.9,-99.9,-99.9,-99.9,0,0,100,20.00,19.99,6,1,6,0.00
2013-4-23,73.3,59.8,48.6,-99.9,-99.9,-99.9,0,0,100,20.00,19.99,12,2,12,0.00
2013-4-24,63.7,46.3,35.5,-99.9,-99.9,-99.9,0,0,100,19.99,19.99,20,5,20,0.00
2013-4-25,75.5,47.6,30.1,-99.9,-99.9,-99.9,0,0,100,20.00,19.99,15,3,15,0.00
2013-4-26,75.5,52.0,32.7,-99.9,-99.9,-99.9,0,0,100,20.00,19.99,6,1,6,0.00
2013-4-27,64.2,54.0,45.4,-99.9,-99.9,-99.9,0,0,100,19.99,19.99,9,2,9,0.00
2013-4-28,68.8,57.9,54.2,-99.9,-99.9,-99.9,0,0,100,20.00,19.99,10,2,10,0.00
2013-4-29,74.4,60.6,54.2,-99.9,-99.9,-99.9,0,0,100,19.99,19.99,7,2,7,0.00
2013-4-30,97.1,67.9,48.5,-99.9,-99.9,-99.9,0,0,100,20.00,19.99,7,2,7,0.00
2013-5-1,101.3,69.3,52.7,-99.9,-99.9,-99.9,0,0,100,19.99,19.99,6,1,6,0.00
2013-5-2,87.6,69.7,58.7,-99.9,-99.9,-99.9,0,0,100,19.99,19.99,6,1,6,0.00
2013-5-3,79.6,67.5,59.4,-99.9,-99.9,-99.9,0,0,100,20.00,19.99,9,2,9,0.00
2013-5-4,66.8,57.5,52.4,-99.9,-99.9,-99.9,0,0,100,19.99,19.99,6,2,6,0.00
2013-5-5,55.0,52.6,51.0,-99.9,-99.9,-99.9,0,0,100,20.00,19.99,8,2,8,0.00
2013-5-6,71.6,60.1,51.6,-99.9,-99.9,-99.9,0,0,100,20.00,19.99,9,2,9,0.00
2013-5-7,89.4,65.5,56.4,-99.9,-99.9,-99.9,0,0,100,20.00,19.99,9,2,9,0.00
2013-5-8,99.0,68.8,52.7,-99.9,-99.9,-99.9,0,0,100,20.00,19.99,10,1,10,0.00
2013-5-9,98.4,69.1,52.9,-99.9,-99.9,-99.9,0,0,100,20.00,19.99,8,1,8,0.00
2013-5-10,70.2,65.4,57.6,-99.9,-99.9,-99.9,0,0,100,20.00,19.99,12,2,12,0.00
2013-5-11,65.9,54.9,48.7,-99.9,-99.9,-99.9,0,0,100,20.00,19.99,15,4,15,0.00
2013-5-12,65.7,51.1,37.5,-99.9,-99.9,-99.9,0,0,100,20.00,20.00,16,4,16,0.00
2013-5-13,71.9,53.6,34.7,-99.9,-99.9,-99.9,0,0,100,20.00,19.99,16,3,16,0.00
2013-5-14,83.6,67.5,45.8,-99.9,-99.9,-99.9,0,0,100,20.00,19.99,14,2,14,0.00
2013-5-15,89.7,76.7,66.0,-99.9,-99.9,-99.9,0,0,100,20.00,19.99,11,4,11,0.00
2013-5-16,80.6,67.4,61.2,-99.9,-99.9,-99.9,0,0,100,19.99,19.99,14,2,14,0.00
2013-5-17,80.8,68.0,57.8,-99.9,-99.9,-99.9,0,0,100,20.00,19.99,5,1,5,0.00
2013-5-18,79.4,69.9,63.3,-99.9,-99.9,-99.9,0,0,100,20.00,19.99,6,1,6,0.00
2013-5-19,91.0,76.2,60.8,-99.9,-99.9,-99.9,0,0,100,19.99,19.99,5,1,5,0.00
2013-5-20,88.3,77.4,68.0,-99.9,-99.9,-99.9,0,0,100,20.00,19.99,11,2,11,0.00
2013-5-21,87.0,73.8,62.6,-99.9,-99.9,-99.9,0,0,100,20.00,19.99,18,2,18,0.00
2013-5-22,83.6,70.6,64.1,-99.9,-99.9,-99.9,0,0,100,20.00,19.99,11,2,11,0.00
2013-5-23,75.0,62.7,51.5,-99.9,-99.9,-99.9,0,0,100,20.00,20.00,17,4,17,0.00
2013-5-24,67.3,55.5,42.3,-99.9,-99.9,-99.9,0,0,100,20.00,19.99,11,3,11,0.00
2013-5-25,77.3,56.8,43.2,-99.9,-99.9,-99.9,0,0,100,19.99,19.99,6,1,6,0.00
2013-5-26,72.5,60.2,50.4,-99.9,-99.9,-99.9,0,0,100,20.00,19.99,6,1,6,0.00
2013-5-27,89.3,71.8,57.8,-99.9,-99.9,-99.9,0,0,100,19.99,19.99,17,2,17,0.00
2013-5-28,86.6,73.4,62.1,-99.9,-99.9,-99.9,0,0,100,20.00,19.99,12,2,12,0.00
2013-5-29,93.4,77.2,66.6,-99.9,-99.9,-99.9,0,0,100,20.00,19.99,9,2,9,0.00
2013-5-30,95.2,78.5,66.5,-99.9,-99.9,-99.9,0,0,100,20.00,19.99,13,3,13,0.00
2013-5-31,78.4,72.0,63.9,-99.9,-99.9,-99.9,0,0,100,20.00,19.99,8,2,8,0.00
2013-6-1,76.4,69.6,63.6,-99.9,-99.9,-99.9,0,0,100,20.00,19.99,14,3,14,0.00
2013-6-2,83.3,69.6,62.8,-99.9,-99.9,-99.9,0,0,100,20.00,19.99,12,4,12,0.00
2013-6-3,71.5,62.4,55.5,-99.9,-99.9,-99.9,0,0,100,19.99,19.99,8,2,8,0.00
2013-6-4,82.9,66.2,50.5,-99.9,-99.9,-99.9,0,0,100,20.00,19.99,6,1,6,0.00
2013-6-5,86.3,71.0,57.7,-99.9,-99.9,-99.9,0,0,100,20.00,19.99,4,1,4,0.00
2013-6-6,80.5,70.5,63.7,-99.9,-99.9,-99.9,0,0,100,20.00,19.99,6,1,6,0.00
2013-6-7,77.8,68.4,61.9,-99.9,-99.9,-99.9,0,0,100,20.00,19.99,12,2,12,0.00
2013-6-8,82.4,69.5,60.9,-99.9,-99.9,-99.9,0,0,100,20.00,19.99,7,1,7,0.00
2013-6-9,90.5,73.4,63.6,-99.9,-99.9,-99.9,0,0,100,20.00,19.99,5,1,5,0.00
2013-6-10,80.2,71.0,65.6,-99.9,-99.9,-99.9,0,0,100,19.99,19.99,13,2,13,0.00
2013-6-11,93.9,75.5,61.5,-99.9,-99.9,-99.9,0,0,100,19.99,19.99,7,1,7,0.00
2013-6-12,92.4,82.8,71.5,-99.9,-99.9,-99.9,0,0,100,20.00,20.00,10,2,10,0.00
2013-6-13,82.2,77.0,64.5,-99.9,-99.9,-99.9,0,0,100,19.99,19.99,8,0,8,0.00
2013-6-14,85.1,71.3,56.9,-99.9,-99.9,-99.9,0,0,100,20.00,19.99,4,0,4,0.00
2013-6-15,66.3,62.7,60.1,-99.9,-99.9,-99.9,0,0,100,20.00,19.99,1,0,1,0.00
2013-7-21,88.9,78.3,66.6,-99.9,-99.9,-99.9,0,0,100,20.00,20.00,0,0,0,0.00
2013-7-22,82.8,74.2,68.8,-99.9,-99.9,-99.9,0,0,100,20.00,19.99,0,0,0,0.00
2013-7-23,91.2,77.1,68.3,-99.9,-99.9,-99.9,0,0,100,20.00,19.99,0,0,0,0.00
2013-7-24,79.2,69.6,60.2,-99.9,-99.9,-99.9,0,0,100,20.00,20.00,0,0,0,0.00
2013-7-25,82.8,68.1,56.6,-99.9,-99.9,-99.9,0,0,100,20.00,19.99,2,0,2,0.00
2013-7-26,85.4,70.0,56.8,-99.9,-99.9,-99.9,0,0,100,20.00,20.00,2,0,2,0.00
2013-7-27,78.5,69.1,61.1,-99.9,-99.9,-99.9,0,0,100,20.00,19.99,0,0,0,0.00
2013-7-28,78.4,64.9,52.6,-99.9,-99.9,-99.9,0,0,100,20.00,20.00,3,0,3,0.00
2013-7-29,83.6,68.3,55.8,-99.9,-99.9,-99.9,0,0,100,20.00,19.99,1,0,1,0.00
2013-7-30,82.2,67.8,61.9,-99.9,-99.9,-99.9,0,0,100,19.99,19.99,0,0,0,0.00
2013-7-31,76.4,69.3,65.2,-99.9,-99.9,-99.9,0,0,100,20.00,20.00,0,0,0,0.00
2013-8-1,83.9,73.4,66.3,-99.9,-99.9,-99.9,0,0,100,20.00,20.00,0,0,0,0.00
2013-8-2,83.2,71.1,59.4,-99.9,-99.9,-99.9,0,0,100,20.00,20.00,0,0,0,0.00
2013-8-3,85.7,75.2,68.2,-99.9,-99.9,-99.9,0,0,100,20.00,20.00,0,0,0,0.00
2013-8-4,81.9,69.9,60.8,-99.9,-99.9,-99.9,0,0,100,20.00,20.00,0,0,0,0.00
2013-8-5,83.6,69.4,56.6,-99.9,-99.9,-99.9,0,0,100,20.00,19.99,1,0,1,0.00
2013-8-6,82.3,74.2,68.8,-99.9,-99.9,-99.9,0,0,100,20.00,19.99,0,0,0,0.00
2013-8-7,83.7,76.1,70.9,-99.9,-99.9,-99.9,0,0,100,19.99,19.99,0,0,0,0.00
2013-8-8,88.9,77.5,71.7,-99.9,-99.9,-99.9,0,0,100,20.00,20.00,0,0,0,0.00
2013-8-9,85.2,75.5,70.9,-99.9,-99.9,-99.9,0,0,100,20.00,19.99,0,0,0,0.00
2013-8-10,83.9,75.6,70.2,-99.9,-99.9,-99.9,0,0,100,20.00,19.99,0,0,0,0.00
2013-8-11,87.6,74.5,66.3,-99.9,-99.9,-99.9,0,0,100,20.00,19.99,0,0,0,0.00
2013-8-12,83.1,72.6,62.6,-99.9,-99.9,-99.9,0,0,100,20.00,20.00,0,0,0,0.00
2013-8-13,80.9,72.2,60.3,-99.9,-99.9,-99.9,0,0,100,19.99,19.99,0,0,0,0.00
2013-8-14,75.3,62.1,52.7,-99.9,-99.9,-99.9,0,0,100,20.00,20.00,4,0,4,0.00
2013-8-15,57.4,55.7,53.9,-99.9,-99.9,-99.9,0,0,100,20.00,20.00,3,1,3,0.00
2013-8-17,60.0,59.8,59.6,-99.9,-99.9,-99.9,0,0,100,0.00,40.00,0,0,0,0.00
2013-8-27,88.0,82.1,73.3,-99.9,-99.9,-99.9,0,0,100,20.00,20.00,0,0,0,0.00
2013-8-28,91.6,81.4,72.6,-99.9,-99.9,-99.9,0,0,100,20.00,20.00,0,0,0,0.00
2013-8-29,90.2,80.1,73.2,-99.9,-99.9,-99.9,0,0,100,20.00,19.99,0,0,0,0.00
2013-8-30,91.1,78.4,67.5,-99.9,-99.9,-99.9,0,0,100,20.00,20.00,0,0,0,0.00
2013-8-31,79.4,75.9,72.6,-99.9,-99.9,-99.9,0,0,100,20.00,20.00,0,0,0,0.00
2013-9-3,77.9,68.4,61.1,-99.9,-99.9,-99.9,0,0,100,20.00,20.00,0,0,0,0.00
2013-9-4,62.1,57.8,54.8,-99.9,-99.9,-99.9,0,0,100,20.00,19.99,1,0,2,0.00
2013-9-5,82.4,70.7,58.8,-99.9,-99.9,-99.9,0,0,100,20.00,20.00,0,0,0,0.00
2013-9-6,83.8,72.0,61.6,-99.9,-99.9,-99.9,0,0,100,20.00,19.99,0,0,0,0.00
2013-9-7,85.8,72.7,62.0,-99.9,-99.9,-99.9,0,0,100,20.00,19.99,0,0,0,0.00
2013-9-8,84.1,74.2,67.4,-99.9,-99.9,-99.9,0,0,100,20.00,19.99,0,0,0,0.00
2013-9-9,89.1,77.1,67.0,-99.9,-99.9,-99.9,0,0,100,19.99,19.99,0,0,0,0.00
2013-9-10,91.0,78.4,71.2,-99.9,-99.9,-99.9,0,0,100,20.00,19.99,0,0,0,0.00
2013-9-11,90.9,78.4,69.8,-99.9,-99.9,-99.9,0,0,100,20.00,20.00,0,0,0,0.00
2013-9-12,77.8,73.8,68.4,-99.9,-99.9,-99.9,0,0,100,20.00,19.99,0,0,0,0.00
2013-9-13,70.4,62.4,53.6,-99.9,-99.9,-99.9,0,0,100,19.99,19.99,3,0,3,0.00
2013-9-14,71.4,58.0,46.4,-99.9,-99.9,-99.9,0,0,100,20.00,19.99,3,0,3,0.00
2013-9-15,75.2,61.4,45.9,-99.9,-99.9,-99.9,0,0,100,20.00,19.99,1,0,1,0.00
2013-9-16,71.5,64.9,57.5,-99.9,-99.9,-99.9,0,0,100,20.00,19.99,0,0,0,0.00
2013-9-17,74.3,62.3,52.3,-99.9,-99.9,-99.9,0,0,100,20.00,19.99,3,0,3,0.00
2013-9-18,81.1,66.9,57.5,-99.9,-99.9,-99.9,0,0,100,20.00,19.99,1,0,1,0.00
2013-9-19,82.3,71.0,64.9,-99.9,-99.9,-99.9,0,0,100,19.99,19.99,0,0,0,0.00
2013-9-20,103.1,72.3,67.0,-99.9,-99.9,-99.9,0,0,100,19.99,19.99,0,0,0,0.00
2013-9-21,99.3,65.3,53.9,-99.9,-99.9,-99.9,0,0,100,20.00,19.99,0,0,0,0.00
2013-9-22,99.5,59.7,48.2,-99.9,-99.9,-99.9,0,0,100,19.99,19.99,3,0,4,0.00
2013-9-23,98.8,59.2,46.3,-99.9,-99.9,-99.9,0,0,100,19.99,19.99,2,0,5,0.00
2013-9-24,98.7,64.1,49.7,-99.9,-99.9,-99.9,0,0,100,20.00,19.99,2,0,2,0.00
2013-9-25,105.1,69.1,58.7,-99.9,-99.9,-99.9,0,0,100,20.00,19.99,0,0,0,0.00
2013-9-26,104.2,65.8,53.3,-99.9,-99.9,-99.9,0,0,100,20.00,19.99,2,0,2,0.00
2013-9-27,107.1,65.7,51.1,-99.9,-99.9,-99.9,0,0,100,20.00,19.99,1,0,3,0.00
2013-9-28,106.7,67.3,52.3,-99.9,-99.9,-99.9,0,0,100,20.02,19.99,0,0,0,0.00
2013-9-29,76.2,62.3,58.3,-99.9,-99.9,-99.9,0,0,100,20.05,19.99,0,0,0,0.00
2013-9-30,75.0,65.2,61.7,-99.9,-99.9,-99.9,0,0,100,20.00,19.99,0,0,0,0.00
2013-10-1,89.1,66.5,13.1,-99.9,-99.9,-99.9,0,0,100,22.97,19.99,0,0,0,0.00
2013-10-2,80.3,70.3,62.9,-99.9,-99.9,-99.9,0,0,100,20.00,19.99,0,0,0,0.00
2013-10-3,82.4,71.7,65.8,-99.9,-99.9,-99.9,0,0,100,19.99,19.99,0,0,0,0.00
2013-10-4,85.0,71.7,64.0,-99.9,-99.9,-99.9,0,0,100,20.00,19.99,0,0,0,0.00
2013-11-17,67.0,60.1,48.6,-99.9,-99.9,-99.9,0,0,100,20.00,19.99,0,0,119,0.00
2013-11-18,72.8,46.9,36.3,-99.9,-99.9,-99.9,0,0,100,20.00,19.99,17,5,119,0.00
2013-11-19,49.9,36.4,29.3,-99.9,-99.9,-99.9,0,0,100,20.00,19.99,7,2,7,0.00
2013-11-20,53.6,40.8,27.6,-99.9,-99.9,-99.9,0,0,100,20.00,19.99,8,2,8,0.00
2013-11-21,60.3,51.4,45.2,-99.9,-99.9,-99.9,0,0,100,19.99,19.99,5,1,5,0.00
2013-11-22,53.7,47.5,36.9,-99.9,-99.9,-99.9,0,0,100,20.00,20.00,15,5,20,0.00
2013-11-23,49.5,31.4,20.1,-99.9,-99.9,-99.9,0,0,100,19.99,19.99,16,6,16,0.00
2013-11-24,45.6,22.2,14.7,-99.9,-99.9,-99.9,0,0,100,20.00,19.99,9,2,9,0.00
2013-11-25,40.5,30.2,19.5,-99.9,-99.9,-99.9,0,0,100,19.99,19.99,13,2,13,0.00
2013-11-26,40.1,34.7,32.2,-99.9,-99.9,-99.9,0,0,100,20.00,19.99,15,3,15,0.00
2013-11-27,41.6,26.2,16.9,-99.9,-99.9,-99.9,0,0,100,19.99,19.99,18,6,18,0.00
2013-11-28,48.3,26.6,15.0,-99.9,-99.9,-99.9,0,0,100,19.99,19.99,9,2,9,0.00
2013-11-29,49.2,29.2,16.4,-99.9,-99.9,-99.9,0,0,100,20.00,20.00,4,1,4,0.00
2013-11-30,50.0,36.6,24.8,-99.9,-99.9,-99.9,0,0,100,20.00,19.99,8,2,8,0.00
2013-12-1,53.4,44.6,37.4,-99.9,-99.9,-99.9,0,0,100,19.99,19.99,10,2,10,0.00
2013-12-2,53.2,43.7,33.9,-99.9,-99.9,-99.9,0,0,100,20.00,19.99,4,1,4,0.00
2013-12-3,54.0,49.5,42.1,-99.9,-99.9,-99.9,0,0,100,20.00,20.00,6,2,6,0.00
2013-12-4,64.3,54.9,45.1,-99.9,-99.9,-99.9,0,0,100,20.00,19.99,9,3,9,0.00
2013-12-5,63.6,41.8,28.9,-99.9,-99.9,-99.9,0,0,100,19.99,19.99,16,5,16,0.00
2013-12-6,29.0,25.1,23.5,-99.9,-99.9,-99.9,0,0,100,20.00,19.99,10,4,10,0.00
2013-12-7,25.9,19.5,11.7,-99.9,-99.9,-99.9,0,0,100,20.00,20.00,12,4,12,0.00
2013-12-8,31.0,25.8,20.0,-99.9,-99.9,-99.9,0,0,100,20.00,19.99,8,3,8,0.00
2013-12-9,31.3,27.2,22.0,-99.9,-99.9,-99.9,0,0,100,20.00,19.99,12,4,12,0.00
2013-12-10,27.6,22.5,18.1,-99.9,-99.9,-99.9,0,0,100,20.00,19.99,14,3,14,0.00
2013-12-11,30.7,21.9,12.3,-99.9,-99.9,-99.9,0,0,100,20.00,19.99,13,4,16,0.00
2013-12-12,20.5,14.1,5.7,-99.9,-99.9,-99.9,0,0,100,20.00,19.99,7,2,10,0.00
2013-12-13,31.9,24.2,14.2,-99.9,-99.9,-99.9,0,0,100,20.00,19.99,8,1,9,0.00
2013-12-14,35.4,32.7,30.0,-99.9,-99.9,-99.9,0,0,100,20.00,19.99,14,3,14,0.00
2013-12-15,30.1,27.2,25.0,-99.9,-99.9,-99.9,0,0,100,20.00,19.99,15,5,15,0.00
2013-12-16,36.8,32.5,28.0,-99.9,-99.9,-99.9,0,0,100,20.00,19.99,7,1,8,0.00
2013-12-17,33.2,29.1,25.8,-99.9,-99.9,-99.9,0,0,100,20.00,19.99,11,4,13,0.00
2013-12-18,36.1,29.3,21.0,-99.9,-99.9,-99.9,0,0,100,20.00,19.99,11,3,11,0.00
2013-12-19,50.6,44.4,35.5,-99.9,-99.9,-99.9,0,0,100,20.00,19.99,11,4,19,0.00
2013-12-20,60.4,55.8,49.6,-99.9,-99.9,-99.9,0,0,100,20.00,19.99,17,5,26,0.00
2013-12-21,59.9,53.1,47.1,-99.9,-99.9,-99.9,0,0,100,20.00,20.00,15,2,18,0.00
2013-12-22,59.6,43.0,33.7,-99.9,-99.9,-99.9,0,0,100,19.99,19.99,18,4,18,0.00
2013-12-23,33.7,28.5,23.2,-99.9,-99.9,-99.9,0,0,100,20.00,20.00,10,3,10,0.00
2013-12-24,23.2,15.8,8.7,-99.9,-99.9,-99.9,0,0,100,19.99,19.99,12,3,12,0.00
2013-12-25,34.1,27.0,18.3,-99.9,-99.9,-99.9,0,0,100,20.00,19.99,6,1,6,0.00
2013-12-26,38.9,32.5,26.8,-99.9,-99.9,-99.9,0,0,100,20.00,19.99,9,1,9,0.00
2013-12-27,46.4,34.7,23.9,-99.9,-99.9,-99.9,0,0,100,20.00,19.99,7,0,7,0.00
2013-12-28,50.8,39.5,31.1,-99.9,-99.9,-99.9,0,0,100,20.00,20.00,10,0,10,0.00
2013-12-29,45.4,36.4,28.7,-99.9,-99.9,-99.9,0,0,100,20.00,19.99,19,2,21,0.00
2013-12-30,28.8,23.8,19.6,-99.9,-99.9,-99.9,0,0,100,20.00,20.00,10,1,10,0.00
2013-12-31,36.1,27.5,20.7,-99.9,-99.9,-99.9,0,0,100,19.99,19.99,11,2,11,0.00
2014-1-1,47.5,35.4,25.7,-99.9,-99.9,-99.9,0,0,100,20.00,20.00,11,1,15,0.00
2014-1-2,36.8,23.9,11.6,-99.9,-99.9,-99.9,0,0,100,20.00,19.99,19,5,21,0.00